Airfield :
LOGIN :

Register | Disclaimer

   EN    FR    IT 

 










Legend :    VFR   Marginal VFR   IFR   Intensive IFR   Very Intensive IFR
Visi :
Ceiling :
>= 8 km
>= 3000ft
5 to 8 km
1000 to 3000 ft
1500m to 5 km
500 to 1000 ft
800 to 1500m
200 to 500 ft
< 800m
< 200 ft
Symbols :   Thunderstorms  Fog  Heavy snow  Heavy precipitations  Wind > 20 kt
SIGMETs :     Misc.  Thunderstorms  Icing  Turbulence  Mountain Waves  Volcanic Ashes






- Airport Elevation : 202 ft
- IATA code : LGW


EGKK - London Gatwick

CURRENT METAR :
  • 101050Z 20015KT 8000 -RA BKN014 BKN018 09/07 Q1016

EXPIRED METARs :
  • 101020Z 20013G23KT 9999 -RA SCT017 BKN023 09/07 Q1017
  • 100950Z 19013KT 160V220 9999 FEW017 BKN024 09/06 Q1017
  • 100920Z 20012KT 150V230 9999 FEW019 BKN024 09/06 Q1018
  • 100850Z 19012KT 9999 VCSH FEW015 BKN021 09/06 Q1019
  • 100820Z 20012KT 170V230 9999 VCSH FEW014 BKN018 08/06 Q1019

TAF TAF EGKK
Valid from the 10 at 06:00 until the 11 at 12:00 UTC


100459Z 1006/1112 19006KT 9999 FEW035
BECMG 1006/1009 19015G25KT
TEMPO 1010/1015 20020G35KT
TEMPO 1012/1023 7000 RA BKN012
BECMG 1015/1018 22020G32KT
PROB30
TEMPO 1017/1020 22025G42KT 4000 +RA
BECMG 1020/1023 27010KT
BECMG 1106/1109 21009KT



MET'MAP, your aeronautical weather chart ! - Copyright ORBIFLY December 2007 - Disclaimer

ORBIFLY MET'MAP TEAM :

Programming & Development : Alexandra Zaïnal
Concept & original design : Baudouin d'Aumeries
Assistance for programming : Marc-Olivier Méhu
Technical & hardware support : Manuel Goepfert

Contact : metmap@orbifly.com




SOURCES & CREDITS :

   NOAA